Enterprise — WYB2848 — position and weather

sailwx.info

Track history (hours):
 
Tides and Currents Weather Stations Pressure Air Temp Water Temp Dewpoint Dewpoint Depression Visibility Wind Speed Wind Dir Waves Ship Positions

Enterprise

Owner: SEAL BEACH ANGLERS, INC, LONG BEACH, CA. More information available from US FCC via Universal Licensing System and Coast Guard Vessel Documentation Center.

Last reported at 2018-Jun-18 23:24 UTC. Time now 2018-Jun-19 04:23 UTC.
Position N 33°46' W 118°12'.

Type: Ship. MMSI: 367095040.

Date/timePositionNaut miles runAvg speedWind from/ knotsBaromVisibWave heightAir tempDewpointWater temp
2018-Jun-18 23:24N 33°46' W 118°12'2 4.5
2018-Jun-18 23:00N 33°44' W 118°11'4 7.4
2018-Jun-18 22:30N 33°40' W 118°11'1 2.3
2018-Jun-18 22:00N 33°39' W 118°12'0 0.0
2018-Jun-18 21:30N 33°39' W 118°12'0 0.0
2018-Jun-18 21:00N 33°39' W 118°12'2 4.0
2018-Jun-18 20:30N 33°37' W 118°12'2 3.7
2018-Jun-18 20:00N 33°36' W 118°11'0 0.1
2018-Jun-18 19:30N 33°36' W 118°11'0 0.4
2018-Jun-18 19:00N 33°36' W 118°11'1 1.4
2018-Jun-18 18:30N 33°35' W 118°10'0 0.0
2018-Jun-18 18:00N 33°35' W 118°10'0 0.0
2018-Jun-18 17:30N 33°35' W 118°10'2 4.4
2018-Jun-18 17:00N 33°37' W 118°11'1 2.1
2018-Jun-18 16:30N 33°38' W 118°12'0 0.5
2018-Jun-18 16:00N 33°39' W 118°12'1 1.7
2018-Jun-18 15:30N 33°39' W 118°12'1 2.3
2018-Jun-18 15:00N 33°40' W 118°13'1 1.7
2018-Jun-18 14:30N 33°40' W 118°13'4 8.0
2018-Jun-18 14:00N 33°44' W 118°10'1 1.6
2018-Jun-18 13:30N 33°44' W 118°09'3 6.0
2018-Jun-18 13:00N 33°46' W 118°12'0 0.0
2018-Jun-17 23:36N 33°46' W 118°12'0 0.0
2018-Jun-17 23:30N 33°46' W 118°12'2 3.7
2018-Jun-17 23:00N 33°44' W 118°11'4 7.2
2018-Jun-17 22:30N 33°40' W 118°12'2 3.8
2018-Jun-17 22:00N 33°39' W 118°14'0 0.6
2018-Jun-17 21:30N 33°40' W 118°14'1 2.2
2018-Jun-17 21:00N 33°40' W 118°13'0 0.1
2018-Jun-17 20:30N 33°40' W 118°13'1 2.5
2018-Jun-17 20:00N 33°39' W 118°14'1 1.2
2018-Jun-17 19:30N 33°39' W 118°13'4 8.8
2018-Jun-17 19:00N 33°35' W 118°10'0 0.3
2018-Jun-17 18:30N 33°35' W 118°10'0 0.0
2018-Jun-17 17:58N 33°35' W 118°10'2 3.2
2018-Jun-17 17:30N 33°37' W 118°11'3 6.7
2018-Jun-17 16:59N 33°40' W 118°13'0 0.6
2018-Jun-17 16:29N 33°40' W 118°14'0 0.0
2018-Jun-17 16:00N 33°40' W 118°14'0 0.2
2018-Jun-17 15:30N 33°40' W 118°13'0 0.1
2018-Jun-17 14:59N 33°40' W 118°13'1 2.7
2018-Jun-17 14:30N 33°41' W 118°13'4 7.7
2018-Jun-17 14:00N 33°44' W 118°09'1 1.1
2018-Jun-17 13:30N 33°44' W 118°09'3 6.5
2018-Jun-17 13:00N 33°46' W 118°12'0 0.0
2018-Jun-17 00:11N 33°46' W 118°12'1 3.0
2018-Jun-17 00:00N 33°45' W 118°11'3 5.3
2018-Jun-16 23:30N 33°43' W 118°11'3 5.1
2018-Jun-16 23:00N 33°40' W 118°12'2 3.2
2018-Jun-16 22:29N 33°40' W 118°14'0 0.0
2018-Jun-16 22:00N 33°40' W 118°14'0 0.0
2018-Jun-16 21:30N 33°40' W 118°14'0 0.0
2018-Jun-16 21:00N 33°40' W 118°14'4 0.8
2018-Jun-16 15:40N 33°36' W 118°11'1 8.0
2018-Jun-16 15:30N 33°37' W 118°10'3 4.5
2018-Jun-16 14:53N 33°40' W 118°12'3 8.3
2018-Jun-16 14:30N 33°43' W 118°11'2 4.8
2018-Jun-16 14:00N 33°44' W 118°08'2 5.1
2018-Jun-16 13:30N 33°45' W 118°11'1 2.0
2018-Jun-16 13:00N 33°46' W 118°12'0 0.0
2018-Jun-16 00:00N 33°46' W 118°12'1 2.4
2018-Jun-15 23:30N 33°45' W 118°11'4 6.9
2018-Jun-15 23:00N 33°43' W 118°14'3 0.7
2018-Jun-15 18:05N 33°40' W 118°14'0 0.0
2018-Jun-15 18:00N 33°40' W 118°14'0 0.0
2018-Jun-15 17:30N 33°40' W 118°14'1 2.4
2018-Jun-15 17:00N 33°38' W 118°13'3 5.2
2018-Jun-15 16:29N 33°36' W 118°13'0 0.0
2018-Jun-15 16:00N 33°36' W 118°13'0 0.0
2018-Jun-15 15:29N 33°36' W 118°13'0 0.0
2018-Jun-15 14:59N 33°36' W 118°13'3 6.3
2018-Jun-15 14:30N 33°39' W 118°11'4 8.2
2018-Jun-15 14:00N 33°42' W 118°09'1 2.7
2018-Jun-15 13:30N 33°44' W 118°08'4 6.3
2018-Jun-15 12:57N 33°46' W 118°12'0 0.0
2018-Jun-14 23:35N 33°46' W 118°12'0 0.8
2018-Jun-14 23:31N 33°46' W 118°12'2 4.4
2018-Jun-14 23:00N 33°44' W 118°12'3 5.6
2018-Jun-14 22:30N 33°41' W 118°14'1 2.8
2018-Jun-14 21:59N 33°40' W 118°14'0 0.0
2018-Jun-14 21:31N 33°40' W 118°14'0 0.0
2018-Jun-14 21:01N 33°40' W 118°14'0 0.0
2018-Jun-14 20:30N 33°40' W 118°14'0 1.0
2018-Jun-14 20:00N 33°39' W 118°13'4 7.7
2018-Jun-14 19:31N 33°36' W 118°11'0 0.6
2018-Jun-14 18:59N 33°36' W 118°11'1 1.2
2018-Jun-14 18:31N 33°36' W 118°11'1 2.3
2018-Jun-14 18:01N 33°36' W 118°13'0 0.0
2018-Jun-14 17:30N 33°36' W 118°13'0 0.0
2018-Jun-14 17:00N 33°36' W 118°13'1 1.7
2018-Jun-14 16:31N 33°36' W 118°12'0 0.7
2018-Jun-14 16:00N 33°36' W 118°11'1 2.7
2018-Jun-14 15:31N 33°37' W 118°12'3 5.4
2018-Jun-14 15:01N 33°39' W 118°11'3 5.6
2018-Jun-14 14:31N 33°41' W 118°09'2 4.8
2018-Jun-14 14:01N 33°44' W 118°08'2 3.6
2018-Jun-14 13:31N 33°45' W 118°10'2 0.1
2018-Jun-14 00:16N 33°46' W 118°12'2 6.4
2018-Jun-14 00:00N 33°44' W 118°11'4 8.2
2018-Jun-13 23:30N 33°43' W 118°16'1 1.7
2018-Jun-13 23:00N 33°44' W 118°16'4 7.2
2018-Jun-13 22:30N 33°41' W 118°14'1 2.6
2018-Jun-13 22:00N 33°40' W 118°14'0 0.1
2018-Jun-13 21:30N 33°40' W 118°14'1 2.0
2018-Jun-13 21:00N 33°40' W 118°13'3 6.8
2018-Jun-13 20:30N 33°37' W 118°11'4 6.9
2018-Jun-13 20:00N 33°34' W 118°09'0 0.0
2018-Jun-13 19:30N 33°34' W 118°09'0 0.0
2018-Jun-13 19:00N 33°34' W 118°09'0 0.4
2018-Jun-13 18:30N 33°34' W 118°08'1 2.7
2018-Jun-13 18:00N 33°35' W 118°10'1 2.6
2018-Jun-13 17:30N 33°36' W 118°11'0 0.0
2018-Jun-13 16:59N 33°36' W 118°11'0 0.0
2018-Jun-13 16:15N 33°36' W 118°11'0 0.0
2018-Jun-13 16:00N 33°36' W 118°11'0 0.0
2018-Jun-13 15:30N 33°36' W 118°11'1 2.1
2018-Jun-13 14:59N 33°37' W 118°11'4 8.1
2018-Jun-13 14:30N 33°41' W 118°11'3 6.7
2018-Jun-13 14:00N 33°44' W 118°09'1 1.2
2018-Jun-13 13:30N 33°44' W 118°09'3 0.2
2018-Jun-13 01:02N 33°46' W 118°12'0 0.2
2018-Jun-13 01:00N 33°46' W 118°12'2 4.9
2018-Jun-13 00:30N 33°43' W 118°11'4 8.0
2018-Jun-13 00:00N 33°40' W 118°13'5 9.3
2018-Jun-12 23:30N 33°37' W 118°17'5 9.0
2018-Jun-12 23:00N 33°34' W 118°22'4 8.2
2018-Jun-12 22:30N 33°31' W 118°26'3 7.0
2018-Jun-12 22:00N 33°29' W 118°29'2 4.8
2018-Jun-12 21:30N 33°28' W 118°31'0 0.8
2018-Jun-12 21:00N 33°28' W 118°31'1 1.4
2018-Jun-12 20:28N 33°27' W 118°30'0 0.3
2018-Jun-12 19:54N 33°27' W 118°30'3 4.0
2018-Jun-12 19:14N 33°26' W 118°27'1 4.7
2018-Jun-12 19:00N 33°26' W 118°26'2 2.5
2018-Jun-12 18:20N 33°25' W 118°24'2 4.7
2018-Jun-12 18:00N 33°25' W 118°22'2 3.2
2018-Jun-12 17:29N 33°23' W 118°22'8 4.8
2018-Jun-12 15:53N 33°30' W 118°17'3 8.2
2018-Jun-12 15:29N 33°32' W 118°15'4 8.0
2018-Jun-12 14:57N 33°36' W 118°13'4 8.2
2018-Jun-12 14:29N 33°40' W 118°10'4 8.4
2018-Jun-12 14:01N 33°43' W 118°08'1 1.8
2018-Jun-12 13:29N 33°44' W 118°09'3 6.1
2018-Jun-12 13:00N 33°46' W 118°12'0 0.0
2018-Jun-10 23:10N 33°46' W 118°12'1 6.3
2018-Jun-10 23:00N 33°45' W 118°11'4 7.6
2018-Jun-10 22:30N 33°42' W 118°08'3 6.1
2018-Jun-10 22:00N 33°40' W 118°06'0 0.0
2018-Jun-10 21:30N 33°40' W 118°06'0 0.0
2018-Jun-10 21:00N 33°40' W 118°06'0 0.0
2018-Jun-10 20:30N 33°40' W 118°06'3 6.3
2018-Jun-10 20:00N 33°36' W 118°07'2 5.0
2018-Jun-10 19:30N 33°34' W 118°08'0 0.0
2018-Jun-10 19:00N 33°34' W 118°08'0 0.8
2018-Jun-10 18:28N 33°34' W 118°08'0 0.3
2018-Jun-10 17:56N 33°34' W 118°09'3 1.4
2018-Jun-10 16:03N 33°36' W 118°11'0 0.0
2018-Jun-10 15:54N 33°36' W 118°11'0 0.0
2018-Jun-10 15:29N 33°36' W 118°11'0 0.0
2018-Jun-10 15:00N 33°36' W 118°11'0 0.1
2018-Jun-10 14:30N 33°36' W 118°11'7 7.0
2018-Jun-10 13:30N 33°43' W 118°11'3 6.2
2018-Jun-10 13:00N 33°46' W 118°12'0 0.0
2018-Jun-09 23:20N 33°46' W 118°12'1 3.5
2018-Jun-09 23:01N 33°45' W 118°11'9 2.8
2018-Jun-09 19:43N 33°36' W 118°09'6 1.0
2018-Jun-09 14:00N 33°42' W 118°08'3 4.7
2018-Jun-09 13:26N 33°44' W 118°09'3 6.2
2018-Jun-09 13:00N 33°46' W 118°12'0 0.0
2018-Jun-08 23:41N 33°46' W 118°12'1 3.7
2018-Jun-08 23:30N 33°45' W 118°11'  
Track history (hours):
 
Tides and Currents Weather Stations Pressure Air Temp Water Temp Dewpoint Dewpoint Depression Visibility Wind Speed Wind Dir Waves Ship Positions

Enterprise

Owner: SEAL BEACH ANGLERS, INC, LONG BEACH, CA. More information available from US FCC via Universal Licensing System and Coast Guard Vessel Documentation Center.

Last reported at 2018-Jun-18 23:24 UTC. Time now 2018-Jun-19 04:23 UTC.
Position N 33°46' W 118°12'.

Type: Ship. MMSI: 367095040.

Date/timePositionNaut miles runAvg speedWind from/ knotsBaromVisibWave heightAir tempDewpointWater temp
2018-Jun-18 23:24N 33°46' W 118°12'2 4.5
2018-Jun-18 23:00N 33°44' W 118°11'4 7.4
2018-Jun-18 22:30N 33°40' W 118°11'1 2.3
2018-Jun-18 22:00N 33°39' W 118°12'0 0.0
2018-Jun-18 21:30N 33°39' W 118°12'0 0.0
2018-Jun-18 21:00N 33°39' W 118°12'2 4.0
2018-Jun-18 20:30N 33°37' W 118°12'2 3.7
2018-Jun-18 20:00N 33°36' W 118°11'0 0.1
2018-Jun-18 19:30N 33°36' W 118°11'0 0.4
2018-Jun-18 19:00N 33°36' W 118°11'1 1.4
2018-Jun-18 18:30N 33°35' W 118°10'0 0.0
2018-Jun-18 18:00N 33°35' W 118°10'0 0.0
2018-Jun-18 17:30N 33°35' W 118°10'2 4.4
2018-Jun-18 17:00N 33°37' W 118°11'1 2.1
2018-Jun-18 16:30N 33°38' W 118°12'0 0.5
2018-Jun-18 16:00N 33°39' W 118°12'1 1.7
2018-Jun-18 15:30N 33°39' W 118°12'1 2.3
2018-Jun-18 15:00N 33°40' W 118°13'1 1.7
2018-Jun-18 14:30N 33°40' W 118°13'4 8.0
2018-Jun-18 14:00N 33°44' W 118°10'1 1.6
2018-Jun-18 13:30N 33°44' W 118°09'3 6.0
2018-Jun-18 13:00N 33°46' W 118°12'0 0.0
2018-Jun-17 23:36N 33°46' W 118°12'0 0.0
2018-Jun-17 23:30N 33°46' W 118°12'2 3.7
2018-Jun-17 23:00N 33°44' W 118°11'4 7.2
2018-Jun-17 22:30N 33°40' W 118°12'2 3.8
2018-Jun-17 22:00N 33°39' W 118°14'0 0.6
2018-Jun-17 21:30N 33°40' W 118°14'1 2.2
2018-Jun-17 21:00N 33°40' W 118°13'0 0.1
2018-Jun-17 20:30N 33°40' W 118°13'1 2.5
2018-Jun-17 20:00N 33°39' W 118°14'1 1.2
2018-Jun-17 19:30N 33°39' W 118°13'4 8.8
2018-Jun-17 19:00N 33°35' W 118°10'0 0.3
2018-Jun-17 18:30N 33°35' W 118°10'0 0.0
2018-Jun-17 17:58N 33°35' W 118°10'2 3.2
2018-Jun-17 17:30N 33°37' W 118°11'3 6.7
2018-Jun-17 16:59N 33°40' W 118°13'0 0.6
2018-Jun-17 16:29N 33°40' W 118°14'0 0.0
2018-Jun-17 16:00N 33°40' W 118°14'0 0.2
2018-Jun-17 15:30N 33°40' W 118°13'0 0.1
2018-Jun-17 14:59N 33°40' W 118°13'1 2.7
2018-Jun-17 14:30N 33°41' W 118°13'4 7.7
2018-Jun-17 14:00N 33°44' W 118°09'1 1.1
2018-Jun-17 13:30N 33°44' W 118°09'3 6.5
2018-Jun-17 13:00N 33°46' W 118°12'0 0.0
2018-Jun-17 00:11N 33°46' W 118°12'1 3.0
2018-Jun-17 00:00N 33°45' W 118°11'3 5.3
2018-Jun-16 23:30N 33°43' W 118°11'3 5.1
2018-Jun-16 23:00N 33°40' W 118°12'2 3.2
2018-Jun-16 22:29N 33°40' W 118°14'0 0.0
2018-Jun-16 22:00N 33°40' W 118°14'0 0.0
2018-Jun-16 21:30N 33°40' W 118°14'0 0.0
2018-Jun-16 21:00N 33°40' W 118°14'4 0.8
2018-Jun-16 15:40N 33°36' W 118°11'1 8.0
2018-Jun-16 15:30N 33°37' W 118°10'3 4.5
2018-Jun-16 14:53N 33°40' W 118°12'3 8.3
2018-Jun-16 14:30N 33°43' W 118°11'2 4.8
2018-Jun-16 14:00N 33°44' W 118°08'2 5.1
2018-Jun-16 13:30N 33°45' W 118°11'1 2.0
2018-Jun-16 13:00N 33°46' W 118°12'0 0.0
2018-Jun-16 00:00N 33°46' W 118°12'1 2.4
2018-Jun-15 23:30N 33°45' W 118°11'4 6.9
2018-Jun-15 23:00N 33°43' W 118°14'3 0.7
2018-Jun-15 18:05N 33°40' W 118°14'0 0.0
2018-Jun-15 18:00N 33°40' W 118°14'0 0.0
2018-Jun-15 17:30N 33°40' W 118°14'1 2.4
2018-Jun-15 17:00N 33°38' W 118°13'3 5.2
2018-Jun-15 16:29N 33°36' W 118°13'0 0.0
2018-Jun-15 16:00N 33°36' W 118°13'0 0.0
2018-Jun-15 15:29N 33°36' W 118°13'0 0.0
2018-Jun-15 14:59N 33°36' W 118°13'3 6.3
2018-Jun-15 14:30N 33°39' W 118°11'4 8.2
2018-Jun-15 14:00N 33°42' W 118°09'1 2.7
2018-Jun-15 13:30N 33°44' W 118°08'4 6.3
2018-Jun-15 12:57N 33°46' W 118°12'0 0.0
2018-Jun-14 23:35N 33°46' W 118°12'0 0.8
2018-Jun-14 23:31N 33°46' W 118°12'2 4.4
2018-Jun-14 23:00N 33°44' W 118°12'3 5.6
2018-Jun-14 22:30N 33°41' W 118°14'1 2.8
2018-Jun-14 21:59N 33°40' W 118°14'0 0.0
2018-Jun-14 21:31N 33°40' W 118°14'0 0.0
2018-Jun-14 21:01N 33°40' W 118°14'0 0.0
2018-Jun-14 20:30N 33°40' W 118°14'0 1.0
2018-Jun-14 20:00N 33°39' W 118°13'4 7.7
2018-Jun-14 19:31N 33°36' W 118°11'0 0.6
2018-Jun-14 18:59N 33°36' W 118°11'1 1.2
2018-Jun-14 18:31N 33°36' W 118°11'1 2.3
2018-Jun-14 18:01N 33°36' W 118°13'0 0.0
2018-Jun-14 17:30N 33°36' W 118°13'0 0.0
2018-Jun-14 17:00N 33°36' W 118°13'1 1.7
2018-Jun-14 16:31N 33°36' W 118°12'0 0.7
2018-Jun-14 16:00N 33°36' W 118°11'1 2.7
2018-Jun-14 15:31N 33°37' W 118°12'3 5.4
2018-Jun-14 15:01N 33°39' W 118°11'3 5.6
2018-Jun-14 14:31N 33°41' W 118°09'2 4.8
2018-Jun-14 14:01N 33°44' W 118°08'2 3.6
2018-Jun-14 13:31N 33°45' W 118°10'2 0.1
2018-Jun-14 00:16N 33°46' W 118°12'2 6.4
2018-Jun-14 00:00N 33°44' W 118°11'4 8.2
2018-Jun-13 23:30N 33°43' W 118°16'1 1.7
2018-Jun-13 23:00N 33°44' W 118°16'4 7.2
2018-Jun-13 22:30N 33°41' W 118°14'1 2.6
2018-Jun-13 22:00N 33°40' W 118°14'0 0.1
2018-Jun-13 21:30N 33°40' W 118°14'1 2.0
2018-Jun-13 21:00N 33°40' W 118°13'3 6.8
2018-Jun-13 20:30N 33°37' W 118°11'4 6.9
2018-Jun-13 20:00N 33°34' W 118°09'0 0.0
2018-Jun-13 19:30N 33°34' W 118°09'0 0.0
2018-Jun-13 19:00N 33°34' W 118°09'0 0.4
2018-Jun-13 18:30N 33°34' W 118°08'1 2.7
2018-Jun-13 18:00N 33°35' W 118°10'1 2.6
2018-Jun-13 17:30N 33°36' W 118°11'0 0.0
2018-Jun-13 16:59N 33°36' W 118°11'0 0.0
2018-Jun-13 16:15N 33°36' W 118°11'0 0.0
2018-Jun-13 16:00N 33°36' W 118°11'0 0.0
2018-Jun-13 15:30N 33°36' W 118°11'1 2.1
2018-Jun-13 14:59N 33°37' W 118°11'4 8.1
2018-Jun-13 14:30N 33°41' W 118°11'3 6.7
2018-Jun-13 14:00N 33°44' W 118°09'1 1.2
2018-Jun-13 13:30N 33°44' W 118°09'3 0.2
2018-Jun-13 01:02N 33°46' W 118°12'0 0.2
2018-Jun-13 01:00N 33°46' W 118°12'2 4.9
2018-Jun-13 00:30N 33°43' W 118°11'4 8.0
2018-Jun-13 00:00N 33°40' W 118°13'5 9.3
2018-Jun-12 23:30N 33°37' W 118°17'5 9.0
2018-Jun-12 23:00N 33°34' W 118°22'4 8.2
2018-Jun-12 22:30N 33°31' W 118°26'3 7.0
2018-Jun-12 22:00N 33°29' W 118°29'2 4.8
2018-Jun-12 21:30N 33°28' W 118°31'0 0.8
2018-Jun-12 21:00N 33°28' W 118°31'1 1.4
2018-Jun-12 20:28N 33°27' W 118°30'0 0.3
2018-Jun-12 19:54N 33°27' W 118°30'3 4.0
2018-Jun-12 19:14N 33°26' W 118°27'1 4.7
2018-Jun-12 19:00N 33°26' W 118°26'2 2.5
2018-Jun-12 18:20N 33°25' W 118°24'2 4.7
2018-Jun-12 18:00N 33°25' W 118°22'2 3.2
2018-Jun-12 17:29N 33°23' W 118°22'8 4.8
2018-Jun-12 15:53N 33°30' W 118°17'3 8.2
2018-Jun-12 15:29N 33°32' W 118°15'4 8.0
2018-Jun-12 14:57N 33°36' W 118°13'4 8.2
2018-Jun-12 14:29N 33°40' W 118°10'4 8.4
2018-Jun-12 14:01N 33°43' W 118°08'1 1.8
2018-Jun-12 13:29N 33°44' W 118°09'3 6.1
2018-Jun-12 13:00N 33°46' W 118°12'0 0.0
2018-Jun-10 23:10N 33°46' W 118°12'1 6.3
2018-Jun-10 23:00N 33°45' W 118°11'4 7.6
2018-Jun-10 22:30N 33°42' W 118°08'3 6.1
2018-Jun-10 22:00N 33°40' W 118°06'0 0.0
2018-Jun-10 21:30N 33°40' W 118°06'0 0.0
2018-Jun-10 21:00N 33°40' W 118°06'0 0.0
2018-Jun-10 20:30N 33°40' W 118°06'3 6.3
2018-Jun-10 20:00N 33°36' W 118°07'2 5.0
2018-Jun-10 19:30N 33°34' W 118°08'0 0.0
2018-Jun-10 19:00N 33°34' W 118°08'0 0.8
2018-Jun-10 18:28N 33°34' W 118°08'0 0.3
2018-Jun-10 17:56N 33°34' W 118°09'3 1.4
2018-Jun-10 16:03N 33°36' W 118°11'0 0.0
2018-Jun-10 15:54N 33°36' W 118°11'0 0.0
2018-Jun-10 15:29N 33°36' W 118°11'0 0.0
2018-Jun-10 15:00N 33°36' W 118°11'0 0.1
2018-Jun-10 14:30N 33°36' W 118°11'7 7.0
2018-Jun-10 13:30N 33°43' W 118°11'3 6.2
2018-Jun-10 13:00N 33°46' W 118°12'0 0.0
2018-Jun-09 23:20N 33°46' W 118°12'1 3.5
2018-Jun-09 23:01N 33°45' W 118°11'9 2.8
2018-Jun-09 19:43N 33°36' W 118°09'6 1.0
2018-Jun-09 14:00N 33°42' W 118°08'3 4.7
2018-Jun-09 13:26N 33°44' W 118°09'3 6.2
2018-Jun-09 13:00N 33°46' W 118°12'0 0.0
2018-Jun-08 23:41N 33°46' W 118°12'1 3.7
2018-Jun-08 23:30N 33°45' W 118°11'  

Dump ship's entire track history